sensor_id;sensor_type;location;lat;lon;timestamp;P1;durP1;ratioP1;P2;durP2;ratioP2
13303;SDS011;6720;51.958;4.540;2022-12-07T00:01:24;10.30;;;4.70;;
13303;SDS011;6720;51.958;4.540;2022-12-07T00:03:54;7.90;;;3.63;;
13303;SDS011;6720;51.958;4.540;2022-12-07T00:06:25;5.90;;;3.80;;
13303;SDS011;6720;51.958;4.540;2022-12-07T00:08:51;9.43;;;4.10;;
13303;SDS011;6720;51.958;4.540;2022-12-07T00:11:17;10.60;;;3.87;;
13303;SDS011;6720;51.958;4.540;2022-12-07T00:13:44;11.03;;;3.87;;
13303;SDS011;6720;51.958;4.540;2022-12-07T00:18:43;5.70;;;3.30;;
13303;SDS011;6720;51.958;4.540;2022-12-07T00:21:13;7.53;;;3.50;;
13303;SDS011;6720;51.958;4.540;2022-12-07T00:23:41;5.60;;;3.67;;
13303;SDS011;6720;51.958;4.540;2022-12-07T00:26:11;5.40;;;3.13;;
13303;SDS011;6720;51.958;4.540;2022-12-07T00:28:38;6.90;;;3.90;;
13303;SDS011;6720;51.958;4.540;2022-12-07T00:31:05;9.47;;;3.77;;
13303;SDS011;6720;51.958;4.540;2022-12-07T00:33:33;9.53;;;3.57;;
13303;SDS011;6720;51.958;4.540;2022-12-07T00:35:59;8.73;;;3.97;;
13303;SDS011;6720;51.958;4.540;2022-12-07T00:38:27;10.60;;;5.40;;
13303;SDS011;6720;51.958;4.540;2022-12-07T00:40:55;9.73;;;3.93;;
13303;SDS011;6720;51.958;4.540;2022-12-07T00:43:21;8.47;;;4.20;;
13303;SDS011;6720;51.958;4.540;2022-12-07T00:45:47;8.00;;;3.83;;
13303;SDS011;6720;51.958;4.540;2022-12-07T00:48:12;9.70;;;3.10;;
13303;SDS011;6720;51.958;4.540;2022-12-07T00:50:37;5.83;;;3.27;;
13303;SDS011;6720;51.958;4.540;2022-12-07T00:53:03;9.07;;;3.70;;
13303;SDS011;6720;51.958;4.540;2022-12-07T00:55:32;6.97;;;3.80;;
13303;SDS011;6720;51.958;4.540;2022-12-07T00:57:58;9.80;;;4.10;;
13303;SDS011;6720;51.958;4.540;2022-12-07T01:00:23;9.00;;;3.63;;
13303;SDS011;6720;51.958;4.540;2022-12-07T01:02:49;5.87;;;3.30;;
13303;SDS011;6720;51.958;4.540;2022-12-07T01:05:14;8.47;;;4.60;;
13303;SDS011;6720;51.958;4.540;2022-12-07T01:07:39;7.87;;;4.10;;
13303;SDS011;6720;51.958;4.540;2022-12-07T01:10:05;8.30;;;4.03;;
13303;SDS011;6720;51.958;4.540;2022-12-07T01:12:31;7.87;;;3.80;;
13303;SDS011;6720;51.958;4.540;2022-12-07T01:14:56;8.43;;;3.77;;
13303;SDS011;6720;51.958;4.540;2022-12-07T01:17:31;8.23;;;3.70;;
13303;SDS011;6720;51.958;4.540;2022-12-07T01:20:06;10.73;;;4.17;;
13303;SDS011;6720;51.958;4.540;2022-12-07T01:22:36;10.63;;;3.63;;
13303;SDS011;6720;51.958;4.540;2022-12-07T01:25:05;10.10;;;3.63;;
13303;SDS011;6720;51.958;4.540;2022-12-07T01:27:33;8.33;;;3.70;;
13303;SDS011;6720;51.958;4.540;2022-12-07T01:29:59;7.57;;;3.53;;
13303;SDS011;6720;51.958;4.540;2022-12-07T01:32:25;6.33;;;3.27;;
13303;SDS011;6720;51.958;4.540;2022-12-07T01:34:51;7.23;;;3.67;;
13303;SDS011;6720;51.958;4.540;2022-12-07T01:37:16;10.33;;;3.90;;
13303;SDS011;6720;51.958;4.540;2022-12-07T01:39:41;7.43;;;3.33;;
13303;SDS011;6720;51.958;4.540;2022-12-07T01:42:09;7.03;;;3.43;;
13303;SDS011;6720;51.958;4.540;2022-12-07T01:45:14;7.93;;;3.47;;
13303;SDS011;6720;51.958;4.540;2022-12-07T01:47:52;7.87;;;3.40;;
13303;SDS011;6720;51.958;4.540;2022-12-07T01:50:21;6.50;;;3.70;;
13303;SDS011;6720;51.958;4.540;2022-12-07T01:52:49;7.53;;;3.73;;
13303;SDS011;6720;51.958;4.540;2022-12-07T01:55:17;7.73;;;3.57;;
13303;SDS011;6720;51.958;4.540;2022-12-07T01:57:45;7.83;;;3.27;;
13303;SDS011;6720;51.958;4.540;2022-12-07T02:00:14;8.10;;;2.97;;
13303;SDS011;6720;51.958;4.540;2022-12-07T02:02:53;6.33;;;3.13;;
13303;SDS011;6720;51.958;4.540;2022-12-07T02:05:24;6.03;;;3.27;;
13303;SDS011;6720;51.958;4.540;2022-12-07T02:07:50;6.10;;;2.90;;
13303;SDS011;6720;51.958;4.540;2022-12-07T02:10:19;8.37;;;2.90;;
13303;SDS011;6720;51.958;4.540;2022-12-07T02:13:11;8.50;;;2.80;;
13303;SDS011;6720;51.958;4.540;2022-12-07T02:21:23;5.67;;;2.73;;
13303;SDS011;6720;51.958;4.540;2022-12-07T02:29:25;8.03;;;3.50;;
13303;SDS011;6720;51.958;4.540;2022-12-07T02:32:01;5.83;;;3.20;;
13303;SDS011;6720;51.958;4.540;2022-12-07T02:37:33;6.33;;;3.17;;
13303;SDS011;6720;51.958;4.540;2022-12-07T02:42:32;5.27;;;2.97;;
13303;SDS011;6720;51.958;4.540;2022-12-07T02:45:02;5.50;;;2.97;;
13303;SDS011;6720;51.958;4.540;2022-12-07T02:47:30;5.47;;;2.50;;
13303;SDS011;6720;51.958;4.540;2022-12-07T02:49:58;6.47;;;2.77;;
13303;SDS011;6720;51.958;4.540;2022-12-07T02:52:23;7.03;;;2.73;;
13303;SDS011;6720;51.958;4.540;2022-12-07T02:54:49;7.30;;;3.20;;
13303;SDS011;6720;51.958;4.540;2022-12-07T03:07:29;10.07;;;3.30;;
13303;SDS011;6720;51.958;4.540;2022-12-07T03:10:36;8.73;;;3.77;;
13303;SDS011;6720;51.958;4.540;2022-12-07T03:16:15;8.17;;;3.70;;
13303;SDS011;6720;51.958;4.540;2022-12-07T03:18:48;4.80;;;3.20;;
13303;SDS011;6720;51.958;4.540;2022-12-07T03:21:22;8.87;;;2.77;;
13303;SDS011;6720;51.958;4.540;2022-12-07T03:23:54;8.10;;;2.70;;
13303;SDS011;6720;51.958;4.540;2022-12-07T03:26:29;8.37;;;2.70;;
13303;SDS011;6720;51.958;4.540;2022-12-07T03:28:58;6.87;;;2.50;;
13303;SDS011;6720;51.958;4.540;2022-12-07T03:31:35;4.10;;;2.40;;
13303;SDS011;6720;51.958;4.540;2022-12-07T03:34:13;7.50;;;2.73;;
13303;SDS011;6720;51.958;4.540;2022-12-07T03:36:54;7.60;;;2.67;;
13303;SDS011;6720;51.958;4.540;2022-12-07T03:39:40;6.50;;;3.97;;
13303;SDS011;6720;51.958;4.540;2022-12-07T03:42:11;7.53;;;2.80;;
13303;SDS011;6720;51.958;4.540;2022-12-07T03:44:38;7.13;;;3.20;;
13303;SDS011;6720;51.958;4.540;2022-12-07T03:47:43;6.77;;;3.00;;
13303;SDS011;6720;51.958;4.540;2022-12-07T03:53:19;10.10;;;3.30;;
13303;SDS011;6720;51.958;4.540;2022-12-07T03:55:49;11.30;;;2.80;;
13303;SDS011;6720;51.958;4.540;2022-12-07T03:58:16;6.03;;;2.50;;
13303;SDS011;6720;51.958;4.540;2022-12-07T04:00:44;7.30;;;2.30;;
13303;SDS011;6720;51.958;4.540;2022-12-07T04:03:10;8.00;;;2.20;;
13303;SDS011;6720;51.958;4.540;2022-12-07T04:05:35;8.03;;;2.80;;
13303;SDS011;6720;51.958;4.540;2022-12-07T04:08:01;8.60;;;2.40;;
13303;SDS011;6720;51.958;4.540;2022-12-07T04:10:27;7.30;;;2.53;;
13303;SDS011;6720;51.958;4.540;2022-12-07T04:12:52;7.40;;;2.60;;
13303;SDS011;6720;51.958;4.540;2022-12-07T04:15:17;4.90;;;2.20;;
13303;SDS011;6720;51.958;4.540;2022-12-07T04:17:43;8.13;;;2.30;;
13303;SDS011;6720;51.958;4.540;2022-12-07T04:20:08;5.73;;;2.67;;
13303;SDS011;6720;51.958;4.540;2022-12-07T04:22:34;8.00;;;3.30;;
13303;SDS011;6720;51.958;4.540;2022-12-07T04:25:00;6.37;;;2.30;;
13303;SDS011;6720;51.958;4.540;2022-12-07T04:27:25;9.30;;;2.40;;
13303;SDS011;6720;51.958;4.540;2022-12-07T04:29:51;7.53;;;2.20;;
13303;SDS011;6720;51.958;4.540;2022-12-07T04:32:16;8.30;;;2.33;;
13303;SDS011;6720;51.958;4.540;2022-12-07T04:34:41;7.50;;;2.40;;
13303;SDS011;6720;51.958;4.540;2022-12-07T04:37:07;10.37;;;2.40;;
13303;SDS011;6720;51.958;4.540;2022-12-07T04:39:33;4.67;;;2.20;;
13303;SDS011;6720;51.958;4.540;2022-12-07T04:41:58;7.73;;;2.13;;
13303;SDS011;6720;51.958;4.540;2022-12-07T04:44:25;7.93;;;2.27;;
13303;SDS011;6720;51.958;4.540;2022-12-07T04:46:51;8.40;;;2.43;;
13303;SDS011;6720;51.958;4.540;2022-12-07T04:49:17;5.80;;;2.60;;
13303;SDS011;6720;51.958;4.540;2022-12-07T04:51:43;4.10;;;2.33;;
13303;SDS011;6720;51.958;4.540;2022-12-07T04:54:09;6.57;;;2.73;;
13303;SDS011;6720;51.958;4.540;2022-12-07T04:56:35;6.60;;;2.53;;
13303;SDS011;6720;51.958;4.540;2022-12-07T04:59:01;5.53;;;2.57;;
13303;SDS011;6720;51.958;4.540;2022-12-07T05:01:27;7.47;;;2.50;;
13303;SDS011;6720;51.958;4.540;2022-12-07T05:03:52;8.47;;;2.43;;
13303;SDS011;6720;51.958;4.540;2022-12-07T05:06:18;5.17;;;2.30;;
13303;SDS011;6720;51.958;4.540;2022-12-07T05:08:44;6.67;;;2.60;;
13303;SDS011;6720;51.958;4.540;2022-12-07T05:11:10;8.50;;;2.73;;
13303;SDS011;6720;51.958;4.540;2022-12-07T05:13:54;6.70;;;3.30;;
13303;SDS011;6720;51.958;4.540;2022-12-07T05:16:19;5.97;;;3.23;;
13303;SDS011;6720;51.958;4.540;2022-12-07T05:18:45;8.83;;;2.90;;
13303;SDS011;6720;51.958;4.540;2022-12-07T05:21:10;7.77;;;2.80;;
13303;SDS011;6720;51.958;4.540;2022-12-07T05:23:36;6.13;;;2.50;;
13303;SDS011;6720;51.958;4.540;2022-12-07T05:26:01;4.90;;;2.67;;
13303;SDS011;6720;51.958;4.540;2022-12-07T05:28:26;5.97;;;2.63;;
13303;SDS011;6720;51.958;4.540;2022-12-07T05:30:52;4.70;;;2.20;;
13303;SDS011;6720;51.958;4.540;2022-12-07T05:33:17;5.13;;;2.60;;
13303;SDS011;6720;51.958;4.540;2022-12-07T05:35:42;5.67;;;2.40;;
13303;SDS011;6720;51.958;4.540;2022-12-07T05:38:08;6.70;;;2.80;;
13303;SDS011;6720;51.958;4.540;2022-12-07T05:40:33;8.97;;;2.63;;
13303;SDS011;6720;51.958;4.540;2022-12-07T05:42:58;9.30;;;2.47;;
13303;SDS011;6720;51.958;4.540;2022-12-07T05:45:24;10.13;;;2.77;;
13303;SDS011;6720;51.958;4.540;2022-12-07T05:47:49;6.80;;;2.87;;
13303;SDS011;6720;51.958;4.540;2022-12-07T05:50:15;6.00;;;2.83;;
13303;SDS011;6720;51.958;4.540;2022-12-07T05:52:40;5.20;;;2.53;;
13303;SDS011;6720;51.958;4.540;2022-12-07T05:55:06;6.27;;;2.40;;
13303;SDS011;6720;51.958;4.540;2022-12-07T05:57:32;6.20;;;2.70;;
13303;SDS011;6720;51.958;4.540;2022-12-07T05:59:57;4.83;;;2.80;;
13303;SDS011;6720;51.958;4.540;2022-12-07T06:02:23;6.90;;;2.33;;
13303;SDS011;6720;51.958;4.540;2022-12-07T06:04:48;5.63;;;2.53;;
13303;SDS011;6720;51.958;4.540;2022-12-07T06:07:14;7.80;;;2.60;;
13303;SDS011;6720;51.958;4.540;2022-12-07T06:09:41;6.33;;;2.73;;
13303;SDS011;6720;51.958;4.540;2022-12-07T06:12:06;4.47;;;2.50;;
13303;SDS011;6720;51.958;4.540;2022-12-07T06:14:53;7.77;;;2.70;;
13303;SDS011;6720;51.958;4.540;2022-12-07T06:17:19;3.27;;;2.53;;
13303;SDS011;6720;51.958;4.540;2022-12-07T06:19:44;7.07;;;2.23;;
13303;SDS011;6720;51.958;4.540;2022-12-07T06:22:10;5.60;;;2.70;;
13303;SDS011;6720;51.958;4.540;2022-12-07T06:24:36;6.73;;;2.70;;
13303;SDS011;6720;51.958;4.540;2022-12-07T06:27:02;9.13;;;3.10;;
13303;SDS011;6720;51.958;4.540;2022-12-07T06:29:28;6.60;;;2.30;;
13303;SDS011;6720;51.958;4.540;2022-12-07T06:31:53;5.17;;;2.57;;
13303;SDS011;6720;51.958;4.540;2022-12-07T06:34:19;7.77;;;2.70;;
13303;SDS011;6720;51.958;4.540;2022-12-07T06:36:47;7.23;;;3.00;;
13303;SDS011;6720;51.958;4.540;2022-12-07T06:39:16;7.60;;;2.70;;
13303;SDS011;6720;51.958;4.540;2022-12-07T06:41:43;7.87;;;3.60;;
13303;SDS011;6720;51.958;4.540;2022-12-07T06:44:09;7.43;;;3.03;;
13303;SDS011;6720;51.958;4.540;2022-12-07T06:46:35;8.10;;;3.20;;
13303;SDS011;6720;51.958;4.540;2022-12-07T06:49:01;10.03;;;3.77;;
13303;SDS011;6720;51.958;4.540;2022-12-07T06:51:27;8.87;;;3.63;;
13303;SDS011;6720;51.958;4.540;2022-12-07T06:53:53;9.17;;;3.70;;
13303;SDS011;6720;51.958;4.540;2022-12-07T06:56:19;8.53;;;4.20;;
13303;SDS011;6720;51.958;4.540;2022-12-07T06:58:44;9.17;;;3.80;;
13303;SDS011;6720;51.958;4.540;2022-12-07T07:01:14;8.03;;;4.27;;
13303;SDS011;6720;51.958;4.540;2022-12-07T07:03:41;9.90;;;3.37;;
13303;SDS011;6720;51.958;4.540;2022-12-07T07:06:06;11.40;;;4.73;;
13303;SDS011;6720;51.958;4.540;2022-12-07T07:08:33;8.50;;;3.80;;
13303;SDS011;6720;51.958;4.540;2022-12-07T07:10:59;8.87;;;3.60;;
13303;SDS011;6720;51.958;4.540;2022-12-07T07:13:24;14.17;;;4.17;;
13303;SDS011;6720;51.958;4.540;2022-12-07T07:15:50;8.87;;;3.73;;
13303;SDS011;6720;51.958;4.540;2022-12-07T07:18:15;10.87;;;3.77;;
13303;SDS011;6720;51.958;4.540;2022-12-07T07:20:40;8.47;;;4.43;;
13303;SDS011;6720;51.958;4.540;2022-12-07T07:23:06;8.40;;;3.07;;
13303;SDS011;6720;51.958;4.540;2022-12-07T07:25:32;9.03;;;4.20;;
13303;SDS011;6720;51.958;4.540;2022-12-07T07:27:57;8.37;;;4.10;;
13303;SDS011;6720;51.958;4.540;2022-12-07T07:30:23;6.70;;;3.57;;
13303;SDS011;6720;51.958;4.540;2022-12-07T07:32:49;6.23;;;3.47;;
13303;SDS011;6720;51.958;4.540;2022-12-07T07:35:14;7.07;;;3.97;;
13303;SDS011;6720;51.958;4.540;2022-12-07T07:37:40;11.10;;;4.10;;
13303;SDS011;6720;51.958;4.540;2022-12-07T07:40:06;10.57;;;4.03;;
13303;SDS011;6720;51.958;4.540;2022-12-07T07:42:32;8.30;;;3.90;;
13303;SDS011;6720;51.958;4.540;2022-12-07T07:44:58;11.67;;;4.70;;
13303;SDS011;6720;51.958;4.540;2022-12-07T07:47:23;9.93;;;4.40;;
13303;SDS011;6720;51.958;4.540;2022-12-07T07:49:49;9.07;;;4.27;;
13303;SDS011;6720;51.958;4.540;2022-12-07T07:52:14;13.07;;;4.50;;
13303;SDS011;6720;51.958;4.540;2022-12-07T07:54:39;8.17;;;4.27;;
13303;SDS011;6720;51.958;4.540;2022-12-07T07:57:06;10.00;;;5.30;;
13303;SDS011;6720;51.958;4.540;2022-12-07T07:59:32;10.67;;;3.97;;
13303;SDS011;6720;51.958;4.540;2022-12-07T08:01:58;9.97;;;3.57;;
13303;SDS011;6720;51.958;4.540;2022-12-07T08:04:24;14.10;;;4.90;;
13303;SDS011;6720;51.958;4.540;2022-12-07T08:06:49;8.83;;;4.50;;
13303;SDS011;6720;51.958;4.540;2022-12-07T08:09:14;8.10;;;4.77;;
13303;SDS011;6720;51.958;4.540;2022-12-07T08:11:40;8.73;;;5.07;;
13303;SDS011;6720;51.958;4.540;2022-12-07T08:14:05;11.53;;;5.30;;
13303;SDS011;6720;51.958;4.540;2022-12-07T08:16:31;9.87;;;5.33;;
13303;SDS011;6720;51.958;4.540;2022-12-07T08:18:56;10.53;;;4.80;;
13303;SDS011;6720;51.958;4.540;2022-12-07T08:21:22;14.93;;;5.70;;
13303;SDS011;6720;51.958;4.540;2022-12-07T08:23:47;9.43;;;5.37;;
13303;SDS011;6720;51.958;4.540;2022-12-07T08:26:14;12.13;;;5.40;;
13303;SDS011;6720;51.958;4.540;2022-12-07T08:28:40;9.83;;;5.40;;
13303;SDS011;6720;51.958;4.540;2022-12-07T08:31:07;15.80;;;5.70;;
13303;SDS011;6720;51.958;4.540;2022-12-07T08:33:35;12.10;;;5.87;;
13303;SDS011;6720;51.958;4.540;2022-12-07T08:36:04;11.03;;;5.77;;
13303;SDS011;6720;51.958;4.540;2022-12-07T08:38:31;11.43;;;5.40;;
13303;SDS011;6720;51.958;4.540;2022-12-07T08:40:57;10.73;;;4.70;;
13303;SDS011;6720;51.958;4.540;2022-12-07T08:43:23;8.77;;;5.13;;
13303;SDS011;6720;51.958;4.540;2022-12-07T08:45:55;9.57;;;5.30;;
13303;SDS011;6720;51.958;4.540;2022-12-07T08:48:29;11.27;;;5.37;;
13303;SDS011;6720;51.958;4.540;2022-12-07T08:50:54;10.17;;;5.07;;
13303;SDS011;6720;51.958;4.540;2022-12-07T08:53:20;10.93;;;4.80;;
13303;SDS011;6720;51.958;4.540;2022-12-07T08:55:46;11.20;;;5.77;;
13303;SDS011;6720;51.958;4.540;2022-12-07T08:58:13;11.13;;;5.20;;
13303;SDS011;6720;51.958;4.540;2022-12-07T09:00:38;9.40;;;4.80;;
13303;SDS011;6720;51.958;4.540;2022-12-07T09:03:04;11.10;;;4.83;;
13303;SDS011;6720;51.958;4.540;2022-12-07T09:05:29;14.07;;;5.53;;
13303;SDS011;6720;51.958;4.540;2022-12-07T09:07:55;12.67;;;5.80;;
13303;SDS011;6720;51.958;4.540;2022-12-07T09:10:25;11.33;;;5.10;;
13303;SDS011;6720;51.958;4.540;2022-12-07T09:12:52;8.87;;;5.10;;
13303;SDS011;6720;51.958;4.540;2022-12-07T09:15:17;7.20;;;4.70;;
13303;SDS011;6720;51.958;4.540;2022-12-07T09:17:43;12.97;;;5.70;;
13303;SDS011;6720;51.958;4.540;2022-12-07T09:20:08;8.77;;;4.47;;
13303;SDS011;6720;51.958;4.540;2022-12-07T09:22:34;12.43;;;4.40;;
13303;SDS011;6720;51.958;4.540;2022-12-07T09:25:00;7.53;;;4.93;;
13303;SDS011;6720;51.958;4.540;2022-12-07T09:27:26;7.33;;;4.13;;
13303;SDS011;6720;51.958;4.540;2022-12-07T09:29:52;8.50;;;4.53;;
13303;SDS011;6720;51.958;4.540;2022-12-07T09:32:18;10.03;;;3.93;;
13303;SDS011;6720;51.958;4.540;2022-12-07T09:34:43;7.23;;;3.27;;
13303;SDS011;6720;51.958;4.540;2022-12-07T09:37:09;6.07;;;3.90;;
13303;SDS011;6720;51.958;4.540;2022-12-07T09:39:34;5.53;;;4.50;;
13303;SDS011;6720;51.958;4.540;2022-12-07T09:42:02;7.70;;;4.27;;
13303;SDS011;6720;51.958;4.540;2022-12-07T09:44:29;8.07;;;4.10;;
13303;SDS011;6720;51.958;4.540;2022-12-07T09:46:55;11.73;;;3.90;;
13303;SDS011;6720;51.958;4.540;2022-12-07T09:49:22;6.30;;;3.73;;
13303;SDS011;6720;51.958;4.540;2022-12-07T09:51:59;10.27;;;4.73;;
13303;SDS011;6720;51.958;4.540;2022-12-07T09:54:27;8.20;;;3.90;;
13303;SDS011;6720;51.958;4.540;2022-12-07T09:56:54;6.80;;;4.10;;
13303;SDS011;6720;51.958;4.540;2022-12-07T09:59:19;11.13;;;4.10;;
13303;SDS011;6720;51.958;4.540;2022-12-07T10:01:46;8.47;;;4.00;;
13303;SDS011;6720;51.958;4.540;2022-12-07T10:06:50;7.00;;;4.10;;
13303;SDS011;6720;51.958;4.540;2022-12-07T10:09:19;8.13;;;4.37;;
13303;SDS011;6720;51.958;4.540;2022-12-07T10:12:03;8.33;;;3.93;;
13303;SDS011;6720;51.958;4.540;2022-12-07T10:14:40;7.37;;;3.00;;
13303;SDS011;6720;51.958;4.540;2022-12-07T10:17:35;8.27;;;3.40;;
13303;SDS011;6720;51.958;4.540;2022-12-07T10:22:37;5.30;;;3.03;;
13303;SDS011;6720;51.958;4.540;2022-12-07T10:25:19;6.53;;;2.73;;
13303;SDS011;6720;51.958;4.540;2022-12-07T10:27:59;5.67;;;3.20;;
13303;SDS011;6720;51.958;4.540;2022-12-07T10:30:26;6.53;;;2.83;;
13303;SDS011;6720;51.958;4.540;2022-12-07T10:32:52;6.27;;;2.77;;
13303;SDS011;6720;51.958;4.540;2022-12-07T10:37:47;6.93;;;2.93;;
13303;SDS011;6720;51.958;4.540;2022-12-07T10:40:30;5.27;;;3.00;;
13303;SDS011;6720;51.958;4.540;2022-12-07T10:43:05;7.63;;;2.83;;
13303;SDS011;6720;51.958;4.540;2022-12-07T11:00:13;5.63;;;3.13;;
13303;SDS011;6720;51.958;4.540;2022-12-07T11:25:17;4.33;;;2.67;;
13303;SDS011;6720;51.958;4.540;2022-12-07T11:33:29;6.97;;;3.00;;
13303;SDS011;6720;51.958;4.540;2022-12-07T11:36:07;5.10;;;2.50;;
13303;SDS011;6720;51.958;4.540;2022-12-07T11:38:46;3.30;;;2.37;;
13303;SDS011;6720;51.958;4.540;2022-12-07T11:41:20;4.33;;;2.33;;
13303;SDS011;6720;51.958;4.540;2022-12-07T11:46:48;6.23;;;2.40;;
13303;SDS011;6720;51.958;4.540;2022-12-07T11:49:37;5.03;;;2.20;;
13303;SDS011;6720;51.958;4.540;2022-12-07T11:52:43;2.57;;;1.60;;
13303;SDS011;6720;51.958;4.540;2022-12-07T11:55:19;3.33;;;1.73;;
13303;SDS011;6720;51.958;4.540;2022-12-07T11:57:56;2.97;;;1.67;;
13303;SDS011;6720;51.958;4.540;2022-12-07T12:00:28;3.27;;;1.30;;
13303;SDS011;6720;51.958;4.540;2022-12-07T12:03:01;3.57;;;1.60;;
13303;SDS011;6720;51.958;4.540;2022-12-07T12:05:33;2.37;;;1.40;;
13303;SDS011;6720;51.958;4.540;2022-12-07T12:08:11;6.10;;;1.80;;
13303;SDS011;6720;51.958;4.540;2022-12-07T12:11:00;2.90;;;1.70;;
13303;SDS011;6720;51.958;4.540;2022-12-07T12:19:16;5.43;;;1.70;;
13303;SDS011;6720;51.958;4.540;2022-12-07T12:22:06;3.87;;;1.60;;
13303;SDS011;6720;51.958;4.540;2022-12-07T12:24:39;4.87;;;1.90;;
13303;SDS011;6720;51.958;4.540;2022-12-07T12:27:08;2.67;;;1.60;;
13303;SDS011;6720;51.958;4.540;2022-12-07T12:29:40;4.17;;;2.00;;
13303;SDS011;6720;51.958;4.540;2022-12-07T12:32:19;4.47;;;2.13;;
13303;SDS011;6720;51.958;4.540;2022-12-07T12:42:46;5.33;;;1.63;;
13303;SDS011;6720;51.958;4.540;2022-12-07T12:50:28;5.53;;;1.60;;
13303;SDS011;6720;51.958;4.540;2022-12-07T12:53:02;5.40;;;2.00;;
13303;SDS011;6720;51.958;4.540;2022-12-07T13:00:43;3.10;;;1.60;;
13303;SDS011;6720;51.958;4.540;2022-12-07T13:03:20;4.30;;;2.10;;
13303;SDS011;6720;51.958;4.540;2022-12-07T13:05:48;4.17;;;2.10;;
13303;SDS011;6720;51.958;4.540;2022-12-07T13:08:49;6.27;;;2.17;;
13303;SDS011;6720;51.958;4.540;2022-12-07T13:11:17;7.77;;;2.53;;
13303;SDS011;6720;51.958;4.540;2022-12-07T13:17:00;4.47;;;1.87;;
13303;SDS011;6720;51.958;4.540;2022-12-07T13:25:11;5.77;;;2.10;;
13303;SDS011;6720;51.958;4.540;2022-12-07T13:27:43;5.03;;;1.80;;
13303;SDS011;6720;51.958;4.540;2022-12-07T13:30:19;2.07;;;1.60;;
13303;SDS011;6720;51.958;4.540;2022-12-07T13:32:52;2.63;;;1.40;;
13303;SDS011;6720;51.958;4.540;2022-12-07T13:35:29;3.47;;;1.37;;
13303;SDS011;6720;51.958;4.540;2022-12-07T13:37:58;4.07;;;2.00;;
13303;SDS011;6720;51.958;4.540;2022-12-07T13:40:26;3.67;;;1.57;;
13303;SDS011;6720;51.958;4.540;2022-12-07T13:43:02;3.23;;;1.43;;
13303;SDS011;6720;51.958;4.540;2022-12-07T13:45:31;3.23;;;1.30;;
13303;SDS011;6720;51.958;4.540;2022-12-07T13:48:24;3.33;;;1.70;;
13303;SDS011;6720;51.958;4.540;2022-12-07T13:50:57;3.67;;;1.50;;
13303;SDS011;6720;51.958;4.540;2022-12-07T13:53:24;2.87;;;1.60;;
13303;SDS011;6720;51.958;4.540;2022-12-07T13:55:55;3.87;;;1.33;;
13303;SDS011;6720;51.958;4.540;2022-12-07T13:58:24;2.70;;;1.60;;
13303;SDS011;6720;51.958;4.540;2022-12-07T14:00:51;2.97;;;1.70;;
13303;SDS011;6720;51.958;4.540;2022-12-07T14:05:43;4.90;;;1.70;;
13303;SDS011;6720;51.958;4.540;2022-12-07T14:10:36;3.20;;;1.60;;
13303;SDS011;6720;51.958;4.540;2022-12-07T14:13:21;3.00;;;1.60;;
13303;SDS011;6720;51.958;4.540;2022-12-07T14:15:54;2.00;;;1.37;;
13303;SDS011;6720;51.958;4.540;2022-12-07T14:21:13;3.47;;;1.70;;
13303;SDS011;6720;51.958;4.540;2022-12-07T14:23:41;3.30;;;1.67;;
13303;SDS011;6720;51.958;4.540;2022-12-07T14:28:44;2.33;;;1.57;;
13303;SDS011;6720;51.958;4.540;2022-12-07T14:31:11;3.77;;;2.07;;
13303;SDS011;6720;51.958;4.540;2022-12-07T14:33:42;6.40;;;1.80;;
13303;SDS011;6720;51.958;4.540;2022-12-07T14:36:11;4.97;;;1.97;;
13303;SDS011;6720;51.958;4.540;2022-12-07T14:38:37;2.33;;;1.60;;
13303;SDS011;6720;51.958;4.540;2022-12-07T14:41:04;2.33;;;1.50;;
13303;SDS011;6720;51.958;4.540;2022-12-07T14:43:49;3.23;;;1.80;;
13303;SDS011;6720;51.958;4.540;2022-12-07T14:46:15;3.63;;;1.70;;
13303;SDS011;6720;51.958;4.540;2022-12-07T14:48:40;4.37;;;1.93;;
13303;SDS011;6720;51.958;4.540;2022-12-07T14:51:07;4.97;;;1.90;;
13303;SDS011;6720;51.958;4.540;2022-12-07T14:53:37;3.13;;;1.63;;
13303;SDS011;6720;51.958;4.540;2022-12-07T14:56:07;3.37;;;1.60;;
13303;SDS011;6720;51.958;4.540;2022-12-07T14:58:33;5.10;;;1.70;;
13303;SDS011;6720;51.958;4.540;2022-12-07T15:00:58;6.07;;;2.27;;
13303;SDS011;6720;51.958;4.540;2022-12-07T15:03:24;4.57;;;1.90;;
13303;SDS011;6720;51.958;4.540;2022-12-07T15:05:50;3.10;;;2.10;;
13303;SDS011;6720;51.958;4.540;2022-12-07T15:08:15;5.57;;;1.93;;
13303;SDS011;6720;51.958;4.540;2022-12-07T15:10:40;4.83;;;2.00;;
13303;SDS011;6720;51.958;4.540;2022-12-07T15:13:06;2.67;;;2.00;;
13303;SDS011;6720;51.958;4.540;2022-12-07T15:15:51;4.63;;;2.00;;
13303;SDS011;6720;51.958;4.540;2022-12-07T15:18:18;3.97;;;2.10;;
13303;SDS011;6720;51.958;4.540;2022-12-07T15:20:44;4.13;;;2.20;;
13303;SDS011;6720;51.958;4.540;2022-12-07T15:23:10;6.00;;;2.00;;
13303;SDS011;6720;51.958;4.540;2022-12-07T15:25:36;4.10;;;1.90;;
13303;SDS011;6720;51.958;4.540;2022-12-07T15:28:01;5.03;;;1.80;;
13303;SDS011;6720;51.958;4.540;2022-12-07T15:30:27;4.37;;;2.23;;
13303;SDS011;6720;51.958;4.540;2022-12-07T15:32:52;7.00;;;2.13;;
13303;SDS011;6720;51.958;4.540;2022-12-07T15:35:18;5.20;;;2.63;;
13303;SDS011;6720;51.958;4.540;2022-12-07T15:37:44;7.23;;;2.53;;
13303;SDS011;6720;51.958;4.540;2022-12-07T15:40:10;6.03;;;2.53;;
13303;SDS011;6720;51.958;4.540;2022-12-07T15:42:36;7.73;;;2.80;;
13303;SDS011;6720;51.958;4.540;2022-12-07T15:45:02;8.17;;;2.77;;
13303;SDS011;6720;51.958;4.540;2022-12-07T15:47:33;7.13;;;2.80;;
13303;SDS011;6720;51.958;4.540;2022-12-07T15:50:01;6.37;;;2.83;;
13303;SDS011;6720;51.958;4.540;2022-12-07T15:52:28;6.50;;;2.90;;
13303;SDS011;6720;51.958;4.540;2022-12-07T15:54:53;5.77;;;2.77;;
13303;SDS011;6720;51.958;4.540;2022-12-07T15:57:19;5.53;;;2.30;;
13303;SDS011;6720;51.958;4.540;2022-12-07T15:59:44;3.57;;;2.40;;
13303;SDS011;6720;51.958;4.540;2022-12-07T16:02:09;6.47;;;2.30;;
13303;SDS011;6720;51.958;4.540;2022-12-07T16:04:35;5.63;;;2.70;;
13303;SDS011;6720;51.958;4.540;2022-12-07T16:07:01;6.53;;;2.50;;
13303;SDS011;6720;51.958;4.540;2022-12-07T16:09:27;6.13;;;2.67;;
13303;SDS011;6720;51.958;4.540;2022-12-07T16:11:53;5.57;;;2.80;;
13303;SDS011;6720;51.958;4.540;2022-12-07T16:14:18;5.17;;;2.60;;
13303;SDS011;6720;51.958;4.540;2022-12-07T16:16:44;5.17;;;2.73;;
13303;SDS011;6720;51.958;4.540;2022-12-07T16:19:09;8.57;;;2.97;;
13303;SDS011;6720;51.958;4.540;2022-12-07T16:21:36;5.63;;;2.70;;
13303;SDS011;6720;51.958;4.540;2022-12-07T16:24:01;5.17;;;3.23;;
13303;SDS011;6720;51.958;4.540;2022-12-07T16:26:27;4.63;;;3.00;;
13303;SDS011;6720;51.958;4.540;2022-12-07T16:28:52;8.53;;;3.47;;
13303;SDS011;6720;51.958;4.540;2022-12-07T16:31:20;4.80;;;3.20;;
13303;SDS011;6720;51.958;4.540;2022-12-07T16:33:47;8.27;;;3.30;;
13303;SDS011;6720;51.958;4.540;2022-12-07T16:36:14;7.13;;;3.30;;
13303;SDS011;6720;51.958;4.540;2022-12-07T16:38:41;7.57;;;3.43;;
13303;SDS011;6720;51.958;4.540;2022-12-07T16:41:07;5.67;;;3.07;;
13303;SDS011;6720;51.958;4.540;2022-12-07T16:43:34;7.77;;;3.20;;
13303;SDS011;6720;51.958;4.540;2022-12-07T16:46:00;5.03;;;3.00;;
13303;SDS011;6720;51.958;4.540;2022-12-07T16:48:25;5.03;;;3.07;;
13303;SDS011;6720;51.958;4.540;2022-12-07T16:50:51;7.03;;;3.13;;
13303;SDS011;6720;51.958;4.540;2022-12-07T16:53:18;4.73;;;2.50;;
13303;SDS011;6720;51.958;4.540;2022-12-07T16:55:45;5.77;;;2.90;;
13303;SDS011;6720;51.958;4.540;2022-12-07T16:58:11;8.17;;;2.80;;
13303;SDS011;6720;51.958;4.540;2022-12-07T17:00:38;5.73;;;2.57;;
13303;SDS011;6720;51.958;4.540;2022-12-07T17:03:04;6.63;;;2.63;;
13303;SDS011;6720;51.958;4.540;2022-12-07T17:05:29;4.80;;;2.33;;
13303;SDS011;6720;51.958;4.540;2022-12-07T17:07:55;5.73;;;2.50;;
13303;SDS011;6720;51.958;4.540;2022-12-07T17:10:22;4.93;;;2.40;;
13303;SDS011;6720;51.958;4.540;2022-12-07T17:12:48;6.17;;;2.83;;
13303;SDS011;6720;51.958;4.540;2022-12-07T17:15:14;4.60;;;2.77;;
13303;SDS011;6720;51.958;4.540;2022-12-07T17:17:53;5.87;;;2.97;;
13303;SDS011;6720;51.958;4.540;2022-12-07T17:20:21;4.03;;;2.40;;
13303;SDS011;6720;51.958;4.540;2022-12-07T17:22:49;7.97;;;3.90;;